MOL Partner — 3EBZ5 — position and weather

sailwx.info

Track history (hours):
 
Tides and Currents Weather Stations Pressure Air Temp Water Temp Dewpoint Dewpoint Depression Visibility Wind Speed Wind Dir Waves Ship Positions

MOL Partner

Last reported at 2017-Jul-25 17:01 UTC. Time now 2017-Jul-29 11:55 UTC.
Position N 01°20' E 104°22'.

Length 293 m; draft 9.3 m.

Type: Cargo ship. MMSI: 371303000.

Date/timePositionNaut miles runAvg speedWind from/ knotsBaromVisibWave heightAir tempDewpointWater temp
2017-Jul-25 17:01N 01°20' E 104°22'1718.0
2017-Jul-25 16:02N 01°15' E 104°05'114.7
2017-Jul-25 15:57N 01°15' E 104°04'614.1
2017-Jul-25 15:30N 01°14' E 103°57'5 9.8
2017-Jul-25 15:00N 01°13' E 103°53'4 3.6
2017-Jul-25 14:00N 01°16' E 103°50'0 0.1
2017-Jul-25 13:30N 01°16' E 103°50'0 0.0
2017-Jul-25 12:57N 01°16' E 103°50'0 0.0
2017-Jul-25 12:27N 01°16' E 103°50'0 0.0
2017-Jul-25 11:57N 01°16' E 103°50'0 0.0
2017-Jul-25 11:30N 01°16' E 103°50'0 0.0
2017-Jul-25 10:57N 01°16' E 103°50'0 0.0
2017-Jul-25 10:30N 01°16' E 103°50'0 0.0
2017-Jul-25 09:57N 01°16' E 103°50'0 0.0
2017-Jul-25 09:30N 01°16' E 103°50'0 0.0
2017-Jul-25 09:00N 01°16' E 103°50'0 0.0
2017-Jul-25 08:30N 01°16' E 103°50'0 0.0
2017-Jul-25 07:57N 01°16' E 103°50'0 0.0
2017-Jul-25 07:30N 01°16' E 103°50'0 0.0
2017-Jul-25 06:57N 01°16' E 103°50'0 0.0
2017-Jul-25 06:27N 01°16' E 103°50'0 0.0
2017-Jul-25 05:57N 01°16' E 103°50'0 0.0
2017-Jul-25 05:30N 01°16' E 103°50'0 0.0
2017-Jul-25 05:00N 01°16' E 103°50'0 0.0
2017-Jul-25 04:30N 01°16' E 103°50'0 0.0
2017-Jul-25 03:51N 01°16' E 103°50'0 0.0
2017-Jul-25 03:30N 01°16' E 103°50'0 0.0
2017-Jul-25 02:57N 01°16' E 103°50'0 0.0
2017-Jul-25 02:27N 01°16' E 103°50'0 0.0
2017-Jul-25 02:00N 01°16' E 103°50'0 0.0
2017-Jul-25 01:27N 01°16' E 103°50'0 0.0
2017-Jul-25 01:01N 01°16' E 103°50'2 3.5
2017-Jul-25 00:30N 01°15' E 103°52'3 4.3
2017-Jul-24 23:53N 01°16' E 103°54'0 0.1
2017-Jul-24 22:05N 01°16' E 103°54'0 0.0
2017-Jul-24 21:59N 01°16' E 103°54'0 0.1
2017-Jul-24 21:29N 01°16' E 103°54'0 0.0
2017-Jul-24 20:59N 01°16' E 103°54'0 0.1
2017-Jul-24 20:29N 01°16' E 103°54'0 0.0
2017-Jul-24 19:44N 01°16' E 103°54'0 0.0
2017-Jul-24 19:29N 01°16' E 103°54'0 0.0
2017-Jul-24 18:59N 01°16' E 103°54'0 0.0
2017-Jul-24 18:29N 01°16' E 103°54'0 0.0
2017-Jul-24 17:59N 01°16' E 103°54'0 0.0
2017-Jul-24 17:29N 01°16' E 103°54'0 0.0
2017-Jul-24 16:56N 01°16' E 103°54'0 0.3
2017-Jul-24 16:29N 01°16' E 103°54'0 0.0
2017-Jul-24 12:08N 01°16' E 103°54'0 0.0
2017-Jul-24 11:59N 01°16' E 103°54'0 0.0
2017-Jul-24 09:08N 01°16' E 103°54'0 0.0
2017-Jul-24 01:32N 01°16' E 103°54'0 0.2
2017-Jul-24 01:12N 01°16' E 103°54'0 0.0
2017-Jul-24 01:00N 01°16' E 103°54'1 2.0
2017-Jul-24 00:30N 01°15' E 103°54'2 3.1
2017-Jul-24 00:00N 01°14' E 103°54'2 4.5
2017-Jul-23 23:30N 01°14' E 103°56'6 9.5
2017-Jul-23 22:53N 01°16' E 104°02'  
Track history (hours):
 
Tides and Currents Weather Stations Pressure Air Temp Water Temp Dewpoint Dewpoint Depression Visibility Wind Speed Wind Dir Waves Ship Positions

MOL Partner

Last reported at 2017-Jul-25 17:01 UTC. Time now 2017-Jul-29 11:55 UTC.
Position N 01°20' E 104°22'.

Length 293 m; draft 9.3 m.

Type: Cargo ship. MMSI: 371303000.

Date/timePositionNaut miles runAvg speedWind from/ knotsBaromVisibWave heightAir tempDewpointWater temp
2017-Jul-25 17:01N 01°20' E 104°22'1718.0
2017-Jul-25 16:02N 01°15' E 104°05'114.7
2017-Jul-25 15:57N 01°15' E 104°04'614.1
2017-Jul-25 15:30N 01°14' E 103°57'5 9.8
2017-Jul-25 15:00N 01°13' E 103°53'4 3.6
2017-Jul-25 14:00N 01°16' E 103°50'0 0.1
2017-Jul-25 13:30N 01°16' E 103°50'0 0.0
2017-Jul-25 12:57N 01°16' E 103°50'0 0.0
2017-Jul-25 12:27N 01°16' E 103°50'0 0.0
2017-Jul-25 11:57N 01°16' E 103°50'0 0.0
2017-Jul-25 11:30N 01°16' E 103°50'0 0.0
2017-Jul-25 10:57N 01°16' E 103°50'0 0.0
2017-Jul-25 10:30N 01°16' E 103°50'0 0.0
2017-Jul-25 09:57N 01°16' E 103°50'0 0.0
2017-Jul-25 09:30N 01°16' E 103°50'0 0.0
2017-Jul-25 09:00N 01°16' E 103°50'0 0.0
2017-Jul-25 08:30N 01°16' E 103°50'0 0.0
2017-Jul-25 07:57N 01°16' E 103°50'0 0.0
2017-Jul-25 07:30N 01°16' E 103°50'0 0.0
2017-Jul-25 06:57N 01°16' E 103°50'0 0.0
2017-Jul-25 06:27N 01°16' E 103°50'0 0.0
2017-Jul-25 05:57N 01°16' E 103°50'0 0.0
2017-Jul-25 05:30N 01°16' E 103°50'0 0.0
2017-Jul-25 05:00N 01°16' E 103°50'0 0.0
2017-Jul-25 04:30N 01°16' E 103°50'0 0.0
2017-Jul-25 03:51N 01°16' E 103°50'0 0.0
2017-Jul-25 03:30N 01°16' E 103°50'0 0.0
2017-Jul-25 02:57N 01°16' E 103°50'0 0.0
2017-Jul-25 02:27N 01°16' E 103°50'0 0.0
2017-Jul-25 02:00N 01°16' E 103°50'0 0.0
2017-Jul-25 01:27N 01°16' E 103°50'0 0.0
2017-Jul-25 01:01N 01°16' E 103°50'2 3.5
2017-Jul-25 00:30N 01°15' E 103°52'3 4.3
2017-Jul-24 23:53N 01°16' E 103°54'0 0.1
2017-Jul-24 22:05N 01°16' E 103°54'0 0.0
2017-Jul-24 21:59N 01°16' E 103°54'0 0.1
2017-Jul-24 21:29N 01°16' E 103°54'0 0.0
2017-Jul-24 20:59N 01°16' E 103°54'0 0.1
2017-Jul-24 20:29N 01°16' E 103°54'0 0.0
2017-Jul-24 19:44N 01°16' E 103°54'0 0.0
2017-Jul-24 19:29N 01°16' E 103°54'0 0.0
2017-Jul-24 18:59N 01°16' E 103°54'0 0.0
2017-Jul-24 18:29N 01°16' E 103°54'0 0.0
2017-Jul-24 17:59N 01°16' E 103°54'0 0.0
2017-Jul-24 17:29N 01°16' E 103°54'0 0.0
2017-Jul-24 16:56N 01°16' E 103°54'0 0.3
2017-Jul-24 16:29N 01°16' E 103°54'0 0.0
2017-Jul-24 12:08N 01°16' E 103°54'0 0.0
2017-Jul-24 11:59N 01°16' E 103°54'0 0.0
2017-Jul-24 09:08N 01°16' E 103°54'0 0.0
2017-Jul-24 01:32N 01°16' E 103°54'0 0.2
2017-Jul-24 01:12N 01°16' E 103°54'0 0.0
2017-Jul-24 01:00N 01°16' E 103°54'1 2.0
2017-Jul-24 00:30N 01°15' E 103°54'2 3.1
2017-Jul-24 00:00N 01°14' E 103°54'2 4.5
2017-Jul-23 23:30N 01°14' E 103°56'6 9.5
2017-Jul-23 22:53N 01°16' E 104°02'  

Dump ship's entire track history